Time;durP1;ratioP1;P1;durP2;ratioP2;P2;SDS_P1;SDS_P2;PMS_P1;PMS_P2;Temp;Humidity;BMP_temperature;BMP_pressure;BME280_temperature;BME280_humidity;BME280_pressure;Samples;Min_cycle;Max_cycle;Signal;HPM_P1;HPM_P2
2023/04/25 00:00:06;;;;;;;0.50;0.50;;;;;;;15.38;100.00;99334.66;5089984;28;20202;-73
2023/04/25 00:02:34;;;;;;;0.50;0.50;;;;;;;15.64;100.00;99351.66;5090466;28;20201;-72
2023/04/25 00:05:01;;;;;;;0.70;0.70;;;;;;;15.55;100.00;99336.16;5092176;28;20230;-73
2023/04/25 00:07:28;;;;;;;0.70;0.70;;;;;;;15.57;100.00;99339.59;5093913;28;20291;-73
2023/04/25 00:09:55;;;;;;;0.52;0.52;;;;;;;15.57;100.00;99332.63;5093723;28;20208;-73
2023/04/25 00:12:22;;;;;;;0.70;0.70;;;;;;;15.58;100.00;99336.09;5074803;28;20285;-73
2023/04/25 00:14:51;;;;;;;0.60;0.60;;;;;;;15.60;100.00;99323.88;5093957;28;20202;-72
2023/04/25 00:17:18;;;;;;;0.60;0.60;;;;;;;15.60;100.00;99326.47;5074531;28;20186;-73
2023/04/25 00:19:46;;;;;;;0.60;0.60;;;;;;;15.64;100.00;99315.09;5093807;28;20218;-72
2023/04/25 00:22:13;;;;;;;0.63;0.63;;;;;;;15.58;100.00;99313.47;5092732;28;20232;-73
2023/04/25 00:24:39;;;;;;;0.70;0.70;;;;;;;15.38;100.00;99298.06;5093264;28;20222;-73
2023/04/25 00:27:06;;;;;;;0.60;0.60;;;;;;;15.23;100.00;99285.25;5092669;28;20198;-73
2023/04/25 00:29:34;;;;;;;0.88;0.88;;;;;;;15.35;100.00;99307.72;5093111;28;20198;-73
2023/04/25 00:32:02;;;;;;;0.60;0.60;;;;;;;15.27;100.00;99291.28;5072481;28;20233;-73
2023/04/25 00:34:29;;;;;;;0.60;0.60;;;;;;;15.36;100.00;99299.88;5093262;28;20582;-73
2023/04/25 00:36:56;;;;;;;0.60;0.60;;;;;;;15.41;100.00;99293.72;5093202;28;20307;-73
2023/04/25 00:39:23;;;;;;;0.60;0.60;;;;;;;15.33;100.00;99294.69;5093539;28;20186;-73
2023/04/25 00:41:53;;;;;;;0.65;0.65;;;;;;;15.25;100.00;99278.28;5092798;28;20244;-73
2023/04/25 00:44:20;;;;;;;0.65;0.65;;;;;;;14.58;100.00;99197.59;5075212;28;20239;-73
2023/04/25 00:46:48;;;;;;;0.80;0.80;;;;;;;14.88;100.00;99254.50;5093665;28;20233;-73
2023/04/25 00:49:16;;;;;;;0.70;0.70;;;;;;;15.11;100.00;99272.44;5093195;28;20228;-72
2023/04/25 00:51:45;;;;;;;0.50;0.50;;;;;;;15.10;100.00;99281.13;5092831;28;20194;-73
2023/04/25 00:54:13;;;;;;;0.60;0.60;;;;;;;15.05;100.00;99271.66;5092788;28;20726;-73
2023/04/25 00:56:41;;;;;;;0.52;0.52;;;;;;;15.09;100.00;99268.13;5092644;28;20201;-73
2023/04/25 00:59:08;;;;;;;0.50;0.50;;;;;;;15.07;100.00;99257.69;5092531;28;20277;-73
2023/04/25 01:01:35;;;;;;;0.70;0.70;;;;;;;14.92;100.00;99257.06;5091041;28;20198;-73
2023/04/25 01:04:02;;;;;;;0.60;0.60;;;;;;;14.94;100.00;99242.25;5092289;28;20295;-73
2023/04/25 01:06:30;;;;;;;0.60;0.60;;;;;;;14.93;100.00;99250.97;5092879;28;20542;-73
2023/04/25 01:08:57;;;;;;;0.60;0.60;;;;;;;14.91;100.00;99231.88;5092632;28;20199;-73
2023/04/25 01:11:24;;;;;;;0.60;0.60;;;;;;;14.87;100.00;99238.91;5091787;28;20206;-73
2023/04/25 01:13:51;;;;;;;0.60;0.60;;;;;;;14.84;100.00;99239.78;5091694;28;20206;-73
2023/04/25 01:16:18;;;;;;;0.60;0.60;;;;;;;14.93;100.00;99233.56;5090819;28;20565;-73
2023/04/25 01:18:46;;;;;;;0.60;0.60;;;;;;;15.03;100.00;99237.75;5092344;28;20202;-72
2023/04/25 01:21:14;;;;;;;0.85;0.85;;;;;;;14.95;100.00;99217.91;5092159;28;20194;-73
2023/04/25 01:23:42;;;;;;;0.60;0.60;;;;;;;15.14;100.00;99234.94;5092215;28;20225;-73
2023/04/25 01:26:10;;;;;;;0.70;0.70;;;;;;;15.06;100.00;99216.81;5092150;28;20202;-73
2023/04/25 01:28:39;;;;;;;0.60;0.60;;;;;;;15.17;100.00;99224.44;5092423;28;20206;-73
2023/04/25 01:31:06;;;;;;;0.77;0.77;;;;;;;15.02;100.00;99196.03;5091749;28;20198;-73
2023/04/25 01:33:33;;;;;;;0.70;0.70;;;;;;;15.08;100.00;99222.00;5091877;28;20692;-73
2023/04/25 01:36:00;;;;;;;0.60;0.60;;;;;;;14.96;100.00;99210.03;5092347;28;20308;-73
2023/04/25 01:38:28;;;;;;;0.60;0.60;;;;;;;15.16;100.00;99215.75;5092298;28;20198;-72
2023/04/25 01:40:56;;;;;;;0.55;0.55;;;;;;;15.06;100.00;99213.31;5092059;28;20572;-73
2023/04/25 01:43:23;;;;;;;0.60;0.60;;;;;;;15.03;100.00;99210.78;5092161;28;20198;-73
2023/04/25 01:45:51;;;;;;;0.60;0.60;;;;;;;15.09;100.00;99198.47;5091540;28;20229;-72
2023/04/25 01:48:18;;;;;;;0.70;0.70;;;;;;;15.14;100.00;99209.72;5092174;28;20198;-73
2023/04/25 01:50:45;;;;;;;0.60;0.60;;;;;;;15.08;100.00;99191.53;5091862;28;20202;-72
2023/04/25 01:53:14;;;;;;;0.60;0.60;;;;;;;15.24;100.00;99195.59;5062147;28;20230;-72
2023/04/25 01:55:43;;;;;;;0.57;0.57;;;;;;;15.23;100.00;99193.88;5092503;28;20229;-72
2023/04/25 01:58:12;;;;;;;0.70;0.70;;;;;;;15.06;100.00;99195.06;5091600;28;20206;-72
2023/04/25 02:00:40;;;;;;;0.60;0.60;;;;;;;15.03;100.00;99180.31;5091585;28;20214;-72
2023/04/25 02:03:08;;;;;;;0.60;0.60;;;;;;;15.15;100.00;99189.69;5091408;28;20203;-72
2023/04/25 02:05:38;;;;;;;0.80;0.80;;;;;;;15.15;100.00;99184.47;5091550;28;20225;-72
2023/04/25 02:08:07;;;;;;;1.15;1.10;;;;;;;15.14;100.00;99178.38;5091374;28;20205;-71
2023/04/25 02:10:34;;;;;;;0.60;0.60;;;;;;;15.14;100.00;99175.75;5091246;28;20202;-71
2023/04/25 02:13:03;;;;;;;0.60;0.60;;;;;;;15.24;100.00;99169.47;5071760;28;20656;-72
2023/04/25 02:15:30;;;;;;;0.52;0.52;;;;;;;15.15;100.00;99159.22;5091267;28;20288;-72
2023/04/25 02:17:57;;;;;;;0.60;0.60;;;;;;;15.16;100.00;99165.31;5091112;28;20705;-72
2023/04/25 02:20:25;;;;;;;0.60;0.60;;;;;;;15.28;100.00;99165.06;5091368;28;20723;-72
2023/04/25 02:22:52;;;;;;;0.60;0.60;;;;;;;15.29;100.00;99169.41;5091338;28;20699;-72
2023/04/25 02:25:20;;;;;;;0.60;0.60;;;;;;;15.30;100.00;99161.53;5091220;28;20245;-72
2023/04/25 02:27:47;;;;;;;0.70;0.70;;;;;;;14.79;100.00;99084.19;5090918;28;20226;-72
2023/04/25 02:30:16;;;;;;;0.60;0.60;;;;;;;15.28;100.00;99152.88;5091747;28;20300;-71
2023/04/25 02:32:42;;;;;;;0.50;0.50;;;;;;;15.09;100.00;99154.09;5090876;28;20222;-71
2023/04/25 02:35:10;;;;;;;0.60;0.60;;;;;;;14.98;100.00;99123.88;5091006;28;20657;-72
2023/04/25 02:37:38;;;;;;;0.52;0.52;;;;;;;15.30;100.00;99151.06;5088448;28;20202;-71
2023/04/25 02:40:06;;;;;;;0.60;0.60;;;;;;;15.38;100.00;99151.78;5059369;28;20210;-71
2023/04/25 02:42:33;;;;;;;0.50;0.50;;;;;;;15.25;100.00;99150.31;5090708;28;20190;-71
2023/04/25 02:45:00;;;;;;;1.95;1.02;;;;;;;15.33;100.00;99164.09;5070726;28;20234;-71
2023/04/25 02:47:29;;;;;;;0.70;0.70;;;;;;;15.37;100.00;99176.19;5083773;28;20728;-71
2023/04/25 02:49:55;;;;;;;0.60;0.60;;;;;;;15.50;100.00;99187.31;5090693;28;20202;-71
2023/04/25 02:52:22;;;;;;;0.50;0.50;;;;;;;15.55;100.00;99179.41;5090738;28;20205;-71
2023/04/25 02:54:49;;;;;;;0.50;0.50;;;;;;;15.73;100.00;99189.50;5090722;28;20688;-70
2023/04/25 02:57:16;;;;;;;0.63;0.63;;;;;;;15.68;100.00;99196.53;5090746;28;20194;-71
2023/04/25 02:59:42;;;;;;;0.50;0.50;;;;;;;15.67;100.00;99184.38;5088353;28;20229;-71
2023/04/25 03:02:09;;;;;;;0.60;0.60;;;;;;;15.72;100.00;99198.22;5090441;28;20207;-71
2023/04/25 03:04:37;;;;;;;0.60;0.60;;;;;;;15.77;100.00;99191.13;5054838;28;20229;-71
2023/04/25 03:07:05;;;;;;;0.70;0.70;;;;;;;15.74;100.00;99196.41;5091055;28;20684;-71
2023/04/25 03:09:32;;;;;;;0.60;0.60;;;;;;;15.79;100.00;99191.97;5081254;28;20649;-71
2023/04/25 03:11:59;;;;;;;0.60;0.60;;;;;;;15.86;100.00;99191.81;5089868;28;20202;-71
2023/04/25 03:14:25;;;;;;;0.50;0.50;;;;;;;15.90;100.00;99200.47;5090285;28;20202;-71
2023/04/25 03:16:52;;;;;;;0.60;0.60;;;;;;;15.84;100.00;99200.56;5090526;28;20202;-71
2023/04/25 03:19:20;;;;;;;0.80;0.80;;;;;;;15.79;100.00;99194.59;5090506;28;20295;-71
2023/04/25 03:21:49;;;;;;;0.60;0.60;;;;;;;15.82;100.00;99173.59;5059010;28;20609;-71
2023/04/25 03:24:16;;;;;;;0.60;0.60;;;;;;;15.82;100.00;99179.69;5089137;28;20234;-71
2023/04/25 03:26:42;;;;;;;0.60;0.60;;;;;;;15.85;100.00;99187.47;5080848;28;20234;-71
2023/04/25 03:29:09;;;;;;;0.60;0.60;;;;;;;15.75;100.00;99193.78;5087774;28;20206;-71
2023/04/25 03:31:36;;;;;;;0.50;0.50;;;;;;;15.70;100.00;99199.97;5090587;28;20194;-71
2023/04/25 03:34:03;;;;;;;0.70;0.70;;;;;;;15.60;100.00;99206.28;5090445;28;20280;-72
2023/04/25 03:36:30;;;;;;;0.60;0.60;;;;;;;15.40;100.00;99185.75;5089971;28;20198;-69
2023/04/25 03:38:58;;;;;;;0.60;0.60;;;;;;;15.73;100.00;99218.22;5091308;28;20662;-71
2023/04/25 03:41:25;;;;;;;0.60;0.60;;;;;;;15.43;100.00;99206.56;5094244;28;20201;-72
2023/04/25 03:43:52;;;;;;;0.60;0.60;;;;;;;15.47;100.00;99199.53;5093030;28;20197;-73
2023/04/25 03:46:18;;;;;;;0.60;0.60;;;;;;;15.66;100.00;99211.41;5094517;28;20608;-72
2023/04/25 03:48:45;;;;;;;0.70;0.70;;;;;;;15.78;100.00;99219.00;5094418;28;20672;-72
2023/04/25 03:51:12;;;;;;;0.60;0.60;;;;;;;15.87;100.00;99213.59;5094277;28;20198;-72
2023/04/25 03:53:39;;;;;;;0.57;0.57;;;;;;;15.99;100.00;99202.88;5094658;28;20198;-71
2023/04/25 03:56:07;;;;;;;0.60;0.60;;;;;;;16.19;100.00;99213.78;5094276;28;20213;-73
2023/04/25 03:58:34;;;;;;;0.60;0.60;;;;;;;15.98;100.00;99210.75;5075408;28;20206;-73
2023/04/25 04:01:02;;;;;;;0.60;0.60;;;;;;;15.99;100.00;99213.31;5093992;28;20198;-73
2023/04/25 04:03:29;;;;;;;0.65;0.65;;;;;;;16.00;100.00;99219.41;5093883;28;20221;-74
2023/04/25 04:05:56;;;;;;;0.50;0.50;;;;;;;15.58;100.00;99205.47;5094335;28;20312;-73
2023/04/25 04:08:23;;;;;;;0.60;0.60;;;;;;;15.58;100.00;99201.09;5071593;28;20198;-75
2023/04/25 04:10:49;;;;;;;0.60;0.60;;;;;;;15.46;100.00;99193.44;5086160;28;20255;-77
2023/04/25 04:13:18;;;;;;;0.70;0.70;;;;;;;15.60;100.00;99198.44;5087396;28;20202;-74
2023/04/25 04:15:44;;;;;;;0.70;0.70;;;;;;;15.47;100.00;99202.16;5093638;28;20202;-72
2023/04/25 04:18:11;;;;;;;0.60;0.60;;;;;;;15.46;100.00;99189.97;5093870;28;20214;-73
2023/04/25 04:20:38;;;;;;;0.60;0.60;;;;;;;15.75;100.00;99213.81;5084955;28;20224;-73
2023/04/25 04:23:05;;;;;;;0.60;0.60;;;;;;;15.82;100.00;99213.69;5093737;28;20198;-69
2023/04/25 04:25:31;;;;;;;0.60;0.60;;;;;;;15.68;100.00;99186.97;5093902;28;20257;-68
2023/04/25 04:27:58;;;;;;;0.60;0.60;;;;;;;15.80;100.00;99206.78;5093282;28;20564;-73
2023/04/25 04:30:29;;;;;;;0.63;0.63;;;;;;;16.11;100.00;99212.22;5093578;28;20220;-76
2023/04/25 04:32:56;;;;;;;0.60;0.60;;;;;;;16.35;100.00;99204.69;5093353;28;20236;-71
2023/04/25 04:35:23;;;;;;;0.60;0.60;;;;;;;16.22;100.00;99195.41;5087207;28;20460;-76
2023/04/25 04:37:50;;;;;;;0.50;0.50;;;;;;;16.45;100.00;99223.66;5093117;28;20615;-75
2023/04/25 04:40:18;;;;;;;0.60;0.60;;;;;;;16.56;100.00;99223.44;5087599;28;20209;-75
2023/04/25 04:42:46;;;;;;;0.60;0.60;;;;;;;16.47;100.00;99219.25;5088406;28;20293;-76
2023/04/25 04:45:13;;;;;;;0.60;0.60;;;;;;;16.30;100.00;99218.78;5086519;28;20280;-75
2023/04/25 04:47:41;;;;;;;0.63;0.63;;;;;;;16.15;100.00;99214.75;5093003;28;20214;-75
2023/04/25 04:50:09;;;;;;;0.60;0.60;;;;;;;16.13;100.00;99220.88;5083598;28;20653;-70
2023/04/25 04:52:36;;;;;;;0.70;0.70;;;;;;;16.25;100.00;99225.84;5092461;28;20198;-74
2023/04/25 04:55:03;;;;;;;0.70;0.70;;;;;;;16.67;100.00;99203.13;5093568;28;20280;-68
2023/04/25 04:57:30;;;;;;;0.60;0.60;;;;;;;16.14;100.00;99170.31;5093014;28;20210;-73
2023/04/25 04:59:57;;;;;;;0.70;0.70;;;;;;;16.29;100.00;99223.16;5092684;28;20296;-75
2023/04/25 05:02:24;;;;;;;0.60;0.60;;;;;;;16.28;100.00;99225.78;5092920;28;20259;-75
2023/04/25 05:04:52;;;;;;;0.50;0.50;;;;;;;16.36;100.00;99210.78;5091996;28;20230;-77
2023/04/25 05:07:19;;;;;;;0.60;0.60;;;;;;;16.33;100.00;99201.25;5092592;28;20206;-78
2023/04/25 05:09:46;;;;;;;0.60;0.60;;;;;;;16.47;100.00;99189.63;5092213;28;20206;-77
2023/04/25 05:12:13;;;;;;;0.60;0.60;;;;;;;16.66;100.00;99209.25;5090830;28;20690;-76
2023/04/25 05:14:40;;;;;;;0.60;0.60;;;;;;;16.70;100.00;99216.13;5063465;28;20202;-76
2023/04/25 05:17:08;;;;;;;0.50;0.50;;;;;;;16.56;100.00;99219.06;5092086;28;20324;-76
2023/04/25 05:19:35;;;;;;;0.60;0.60;;;;;;;16.08;100.00;99157.38;5092423;28;20202;-76
2023/04/25 05:22:03;;;;;;;0.63;0.63;;;;;;;16.34;100.00;99216.03;5093059;28;20659;-76
2023/04/25 05:24:30;;;;;;;0.75;0.75;;;;;;;16.40;100.00;99214.19;5057017;28;20695;-75
2023/04/25 05:26:57;;;;;;;0.60;0.60;;;;;;;16.60;100.00;99219.84;5092546;28;20222;-70
2023/04/25 05:29:24;;;;;;;0.63;0.63;;;;;;;16.43;100.00;99193.19;5092716;28;20202;-75
2023/04/25 05:31:51;;;;;;;0.70;0.70;;;;;;;16.38;100.00;99216.84;5092333;28;20281;-75
2023/04/25 05:34:17;;;;;;;0.60;0.60;;;;;;;16.59;100.00;99216.38;5092078;28;20213;-74
2023/04/25 05:36:44;;;;;;;0.60;0.60;;;;;;;16.43;100.00;99214.13;5092368;28;20255;-73
2023/04/25 05:39:13;;;;;;;0.70;0.70;;;;;;;16.57;100.00;99199.88;5092192;28;20267;-74
2023/04/25 05:41:40;;;;;;;0.60;0.60;;;;;;;16.61;100.00;99208.50;5092384;28;20240;-74
2023/04/25 05:44:06;;;;;;;0.60;0.60;;;;;;;16.98;100.00;99217.19;5091867;28;20278;-74
2023/04/25 05:46:33;;;;;;;0.57;0.57;;;;;;;17.21;100.00;99222.72;5091947;28;20238;-73
2023/04/25 05:49:00;;;;;;;0.80;0.80;;;;;;;17.38;100.00;99218.78;5056667;28;20214;-73
2023/04/25 05:51:27;;;;;;;0.80;0.80;;;;;;;17.09;100.00;99211.66;5056744;28;20198;-74
2023/04/25 05:53:54;;;;;;;0.70;0.70;;;;;;;17.21;100.00;99217.47;5091668;28;20201;-74
2023/04/25 05:56:22;;;;;;;0.70;0.70;;;;;;;17.10;100.00;99214.28;5091847;28;20680;-76
2023/04/25 05:58:49;;;;;;;0.60;0.60;;;;;;;16.89;100.00;99199.09;5091476;28;20263;-76
2023/04/25 06:01:15;;;;;;;0.70;0.70;;;;;;;16.90;100.00;99213.91;5091446;28;20640;-74
2023/04/25 06:03:43;;;;;;;0.60;0.60;;;;;;;16.96;100.00;99216.38;5091371;28;20199;-74
2023/04/25 06:06:10;;;;;;;0.70;0.70;;;;;;;16.81;100.00;99188.81;5091677;28;20218;-74
2023/04/25 06:08:37;;;;;;;0.60;0.60;;;;;;;17.16;100.00;99221.97;5091569;28;20213;-74
2023/04/25 06:11:04;;;;;;;0.70;0.70;;;;;;;17.45;100.00;99205.47;5091448;28;20221;-73
2023/04/25 06:13:32;;;;;;;0.60;0.60;;;;;;;18.16;100.00;99194.75;5082668;28;20202;-74
2023/04/25 06:15:59;;;;;;;0.60;0.60;;;;;;;18.37;100.00;99235.25;5086189;28;20213;-70
2023/04/25 06:18:26;;;;;;;0.60;0.60;;;;;;;18.08;100.00;99208.13;5091534;28;20202;-73
2023/04/25 06:20:52;;;;;;;0.60;0.60;;;;;;;18.18;100.00;99224.44;5091431;28;20209;-73
2023/04/25 06:23:19;;;;;;;0.70;0.70;;;;;;;18.48;100.00;99220.03;5091039;28;20251;-73
2023/04/25 06:25:46;;;;;;;0.60;0.60;;;;;;;18.59;100.00;99218.81;5090988;28;20290;-73
2023/04/25 06:28:13;;;;;;;2.10;0.88;;;;;;;18.56;100.00;99221.53;5086892;28;20214;-74
2023/04/25 06:30:41;;;;;;;0.75;0.75;;;;;;;18.61;100.00;99224.03;5081436;28;20202;-74
2023/04/25 06:33:08;;;;;;;0.60;0.60;;;;;;;18.79;100.00;99208.56;5091085;28;20312;-74
2023/04/25 06:35:35;;;;;;;0.60;0.60;;;;;;;19.12;100.00;99219.69;5091041;28;20202;-74
2023/04/25 06:38:02;;;;;;;0.60;0.60;;;;;;;19.06;100.00;99227.81;5091034;28;20202;-75
2023/04/25 06:40:28;;;;;;;0.70;0.70;;;;;;;19.17;100.00;99225.69;5090819;28;20210;-74
2023/04/25 06:42:55;;;;;;;0.70;0.70;;;;;;;18.48;100.00;99233.16;5055665;28;20271;-75
2023/04/25 06:45:22;;;;;;;0.50;0.50;;;;;;;18.66;100.00;99222.09;5090516;28;20233;-74
2023/04/25 06:47:50;;;;;;;0.70;0.70;;;;;;;18.98;100.00;99215.84;5090738;28;20208;-76
2023/04/25 06:50:17;;;;;;;0.60;0.60;;;;;;;19.12;100.00;99221.50;5090802;28;20226;-75
2023/04/25 06:52:45;;;;;;;0.52;0.52;;;;;;;19.43;100.00;99224.84;5091068;28;20579;-75
2023/04/25 06:55:11;;;;;;;0.68;0.68;;;;;;;19.67;100.00;99213.44;5090903;28;20672;-76
2023/04/25 06:57:38;;;;;;;0.80;0.80;;;;;;;19.74;100.00;99214.94;5091068;28;20205;-75
2023/04/25 07:00:09;;;;;;;0.60;0.60;;;;;;;19.83;100.00;99242.69;5091134;28;20197;-74
2023/04/25 07:02:36;;;;;;;0.60;0.60;;;;;;;19.97;100.00;99248.31;5090958;28;20227;-76
2023/04/25 07:05:05;;;;;;;0.60;0.60;;;;;;;20.33;100.00;99242.63;5090772;28;20205;-75
2023/04/25 07:07:32;;;;;;;0.50;0.50;;;;;;;20.07;100.00;99247.06;5090764;28;20626;-77
2023/04/25 07:09:59;;;;;;;0.75;0.75;;;;;;;20.46;100.00;99243.88;5091033;28;20198;-76
2023/04/25 07:12:25;;;;;;;0.60;0.60;;;;;;;20.17;100.00;99248.44;5090716;28;20539;-76
2023/04/25 07:14:52;;;;;;;0.70;0.70;;;;;;;20.09;100.00;99231.19;5054794;28;20201;-76
2023/04/25 07:17:19;;;;;;;0.80;0.80;;;;;;;20.33;100.00;99255.81;5090638;28;20202;-75
2023/04/25 07:19:46;;;;;;;0.60;0.60;;;;;;;20.45;100.00;99240.38;5090645;28;20592;-75
2023/04/25 07:22:14;;;;;;;0.60;0.60;;;;;;;20.99;100.00;99250.53;5090834;28;20198;-77
2023/04/25 07:24:41;;;;;;;0.60;0.60;;;;;;;20.48;100.00;99261.31;5071799;28;20596;-77
2023/04/25 07:27:07;;;;;;;0.50;0.50;;;;;;;20.45;100.00;99245.66;5090631;28;20585;-75
2023/04/25 07:29:36;;;;;;;0.85;0.85;;;;;;;20.53;100.00;99259.38;5090672;28;20703;-74
2023/04/25 07:32:04;;;;;;;0.60;0.60;;;;;;;20.67;100.00;99237.78;5091019;28;20194;-73
2023/04/25 07:34:31;;;;;;;0.57;0.57;;;;;;;20.98;98.79;99261.97;5090504;28;20235;-73
2023/04/25 07:36:59;;;;;;;0.60;0.60;;;;;;;21.30;97.24;99255.41;5090751;28;20251;-74
2023/04/25 07:39:27;;;;;;;0.60;0.60;;;;;;;21.31;96.71;99251.00;5090748;28;20202;-73
2023/04/25 07:41:54;;;;;;;0.50;0.50;;;;;;;20.94;99.92;99256.91;5071715;28;20636;-73
2023/04/25 07:44:21;;;;;;;0.50;0.50;;;;;;;20.60;100.00;99273.19;5090643;28;20202;-73
2023/04/25 07:46:48;;;;;;;0.60;0.60;;;;;;;20.48;100.00;99260.47;5090783;28;20229;-74
2023/04/25 07:49:15;;;;;;;1.30;0.68;;;;;;;20.41;100.00;99240.56;5090606;28;20210;-74
2023/04/25 07:51:43;;;;;;;0.50;0.50;;;;;;;20.59;100.00;99264.41;5090676;28;20195;-74
2023/04/25 07:54:10;;;;;;;0.60;0.60;;;;;;;20.82;100.00;99263.53;5090511;28;20204;-74
2023/04/25 07:56:38;;;;;;;0.60;0.60;;;;;;;21.04;99.07;99252.97;5090733;28;20206;-74
2023/04/25 07:59:05;;;;;;;0.70;0.70;;;;;;;21.06;95.91;99257.25;5090535;28;20206;-75
2023/04/25 08:01:31;;;;;;;0.50;0.50;;;;;;;20.64;96.50;99232.63;5090288;28;20236;-75
2023/04/25 08:03:58;;;;;;;0.80;0.80;;;;;;;20.44;97.23;99249.19;5090399;28;20213;-74
2023/04/25 08:06:25;;;;;;;0.60;0.60;;;;;;;20.15;100.00;99247.66;5090469;28;20226;-73
2023/04/25 08:08:52;;;;;;;0.60;0.60;;;;;;;20.08;99.61;99216.34;5090324;28;20202;-74
2023/04/25 08:11:18;;;;;;;0.57;0.57;;;;;;;20.24;98.65;99239.41;5090243;28;20206;-74
2023/04/25 08:13:47;;;;;;;0.55;0.55;;;;;;;20.16;99.19;99246.72;5090426;28;20222;-75
2023/04/25 08:16:13;;;;;;;0.60;0.60;;;;;;;20.42;91.65;99248.41;5090269;28;20202;-74
2023/04/25 08:18:40;;;;;;;0.60;0.60;;;;;;;20.40;92.04;99231.81;5090229;28;20195;-74
2023/04/25 08:21:08;;;;;;;0.50;0.50;;;;;;;20.67;92.91;99243.03;5090455;28;20727;-74
2023/04/25 08:23:35;;;;;;;0.70;0.70;;;;;;;20.80;91.85;99254.81;5090336;28;20209;-74
2023/04/25 08:26:02;;;;;;;0.50;0.50;;;;;;;20.53;91.20;99263.78;5092335;28;20245;-74
2023/04/25 08:28:29;;;;;;;0.60;0.60;;;;;;;20.40;92.11;99252.88;5093717;28;20214;-74
2023/04/25 08:30:57;;;;;;;0.63;0.63;;;;;;;20.51;90.99;99263.84;5093863;28;20198;-74
2023/04/25 08:33:24;;;;;;;0.60;0.60;;;;;;;20.48;90.60;99263.09;5093694;28;20327;-73
2023/04/25 08:35:51;;;;;;;0.60;0.60;;;;;;;20.26;92.94;99261.25;5093733;28;20226;-74
2023/04/25 08:38:19;;;;;;;0.60;0.60;;;;;;;20.48;94.23;99255.19;5093661;28;20202;-75
2023/04/25 08:40:51;;;;;;;0.60;0.60;;;;;;;20.18;89.83;99249.31;5093573;28;20251;-73
2023/04/25 08:43:19;;;;;;;0.60;0.60;;;;;;;20.16;87.71;99251.97;5093306;28;20230;-73
2023/04/25 08:45:47;;;;;;;0.55;0.55;;;;;;;20.34;87.25;99254.88;5093223;28;20225;-74
2023/04/25 08:48:16;;;;;;;0.70;0.70;;;;;;;20.18;86.39;99252.78;5093301;28;20688;-74
2023/04/25 08:50:50;;;;;;;0.60;0.60;;;;;;;20.28;86.13;99246.31;5093486;28;20228;-74
2023/04/25 08:53:19;;;;;;;0.60;0.60;;;;;;;20.07;84.97;99251.47;5059315;28;20248;-74
2023/04/25 08:55:47;;;;;;;0.50;0.50;;;;;;;20.08;85.05;99253.19;5093082;28;20213;-74
2023/04/25 08:58:14;;;;;;;0.60;0.60;;;;;;;20.01;84.22;99256.97;5093278;28;20206;-74
2023/04/25 09:00:41;;;;;;;0.60;0.60;;;;;;;19.93;82.36;99249.34;5093280;28;20205;-74
2023/04/25 09:03:08;;;;;;;0.60;0.60;;;;;;;20.57;82.77;99263.63;5093088;28;20198;-74
2023/04/25 09:05:36;;;;;;;0.70;0.70;;;;;;;20.46;79.51;99230.72;5093195;28;20198;-74
2023/04/25 09:08:03;;;;;;;0.60;0.60;;;;;;;20.48;78.46;99260.47;5057719;28;20233;-75
2023/04/25 09:10:30;;;;;;;0.60;0.60;;;;;;;20.54;77.07;99258.47;5057555;28;20575;-74
2023/04/25 09:13:05;;;;;;;0.50;0.50;;;;;;;20.74;78.44;99249.78;5093008;28;20205;-74
2023/04/25 09:15:32;;;;;;;0.57;0.57;;;;;;;20.55;81.30;99259.31;5092984;28;20285;-74
2023/04/25 09:18:00;;;;;;;0.60;0.60;;;;;;;20.34;84.08;99254.88;5092834;28;20205;-74
2023/04/25 09:20:27;;;;;;;0.60;0.60;;;;;;;20.19;87.36;99251.84;5092636;28;20190;-74
2023/04/25 09:23:05;;;;;;;0.60;0.60;;;;;;;20.17;89.25;99190.53;5057222;28;20202;-74
2023/04/25 09:25:36;;;;;;;0.50;0.50;;;;;;;20.82;87.26;99254.75;5092698;28;20741;-74
2023/04/25 09:28:06;;;;;;;0.60;0.60;;;;;;;20.89;82.90;99246.56;5086275;28;20254;-74
2023/04/25 09:30:35;;;;;;;0.50;0.50;;;;;;;21.01;85.93;99246.03;5090840;28;20202;-73
2023/04/25 09:33:06;;;;;;;0.50;0.50;;;;;;;21.11;85.44;99234.25;5091990;28;20613;-74
2023/04/25 09:35:37;;;;;;;0.60;0.60;;;;;;;21.14;86.35;99236.75;5077781;28;20221;-71
2023/04/25 09:38:10;;;;;;;0.70;0.70;;;;;;;21.22;86.83;99247.81;5077134;28;20245;-72
2023/04/25 09:40:41;;;;;;;0.60;0.60;;;;;;;21.04;92.32;99221.34;5080224;28;20276;-71
2023/04/25 09:43:11;;;;;;;0.70;0.70;;;;;;;20.98;94.61;99230.34;5090532;28;20289;-70
2023/04/25 09:45:45;;;;;;;0.70;0.70;;;;;;;20.92;97.77;99249.06;5069484;28;20682;-74
2023/04/25 09:48:12;;;;;;;0.60;0.60;;;;;;;20.87;99.44;99208.00;5085620;28;20218;-74
2023/04/25 09:50:40;;;;;;;0.60;0.60;;;;;;;21.04;100.00;99219.56;5071889;28;20206;-73
2023/04/25 09:53:07;;;;;;;0.60;0.60;;;;;;;21.37;100.00;99248.13;5085703;28;20661;-74
2023/04/25 09:55:36;;;;;;;0.70;0.70;;;;;;;21.34;100.00;99235.03;5080413;28;20750;-73
2023/04/25 09:58:06;;;;;;;0.60;0.60;;;;;;;21.53;100.00;99241.28;5091664;28;20230;-73
2023/04/25 10:00:34;;;;;;;0.50;0.50;;;;;;;21.34;100.00;99232.41;5091710;28;20249;-73
2023/04/25 10:03:03;;;;;;;0.57;0.57;;;;;;;21.50;100.00;99231.72;5056471;28;20237;-73
2023/04/25 10:05:33;;;;;;;0.60;0.60;;;;;;;21.53;100.00;99225.44;5085326;28;20203;-74
2023/04/25 10:08:03;;;;;;;0.60;0.60;;;;;;;21.40;100.00;99224.25;5084050;28;20667;-73
2023/04/25 10:10:35;;;;;;;0.60;0.60;;;;;;;21.12;100.00;99227.16;5091411;28;20233;-74
2023/04/25 10:13:05;;;;;;;0.60;0.60;;;;;;;20.92;100.00;99222.69;5079028;28;20203;-74
2023/04/25 10:15:35;;;;;;;0.60;0.60;;;;;;;20.25;100.00;99227.09;5076027;28;20230;-74
2023/04/25 10:18:02;;;;;;;0.70;0.70;;;;;;;19.67;100.00;99236.25;5091627;28;20274;-73
2023/04/25 10:20:29;;;;;;;0.60;0.60;;;;;;;19.59;100.00;99231.25;5091625;28;20201;-73
2023/04/25 10:23:04;;;;;;;0.80;0.80;;;;;;;19.71;100.00;99214.19;5091464;28;20220;-73
2023/04/25 10:25:31;;;;;;;0.60;0.60;;;;;;;19.71;100.00;99219.47;5091428;28;20209;-74
2023/04/25 10:28:00;;;;;;;0.70;0.70;;;;;;;19.61;100.00;99220.69;5091234;28;20727;-74
2023/04/25 10:30:28;;;;;;;0.70;0.70;;;;;;;19.76;100.00;99225.44;5091489;28;20206;-74
2023/04/25 10:32:56;;;;;;;0.60;0.60;;;;;;;19.75;100.00;99229.81;5091720;28;20259;-74
2023/04/25 10:35:27;;;;;;;0.50;0.50;;;;;;;19.76;100.00;99189.44;5091368;28;20640;-73
2023/04/25 10:38:04;;;;;;;0.50;0.50;;;;;;;20.33;100.00;99226.84;5091229;28;20198;-73
2023/04/25 10:40:31;;;;;;;1.08;1.08;;;;;;;20.50;96.33;99240.22;5091349;28;20286;-74
2023/04/25 10:43:45;;;;;;;0.50;0.50;;;;;;;21.17;92.68;99226.06;5091108;28;20255;-74
2023/04/25 10:46:17;;;;;;;0.60;0.60;;;;;;;22.07;89.18;99223.03;5048437;28;20318;-75
2023/04/25 10:48:49;;;;;;;0.60;0.60;;;;;;;22.88;81.17;99228.03;5048898;28;20547;-74
2023/04/25 10:51:21;;;;;;;0.60;0.60;;;;;;;23.05;68.15;99214.81;5048751;28;20204;-74
2023/04/25 10:53:57;;;;;;;0.60;0.60;;;;;;;23.24;63.73;99235.94;5048804;28;20191;-74
2023/04/25 10:56:26;;;;;;;0.55;0.55;;;;;;;23.55;64.21;99203.50;5048816;28;20199;-75
2023/04/25 10:59:03;;;;;;;0.60;0.60;;;;;;;23.64;69.10;99229.50;5048641;28;20203;-75
2023/04/25 11:01:37;;;;;;;0.60;0.60;;;;;;;23.19;75.24;99201.75;5048625;28;20202;-75
2023/04/25 11:04:04;;;;;;;0.60;0.60;;;;;;;23.00;67.38;99227.44;5048652;28;20686;-74
2023/04/25 11:06:45;;;;;;;0.60;0.60;;;;;;;23.39;62.53;99214.00;5048325;28;20210;-74
2023/04/25 11:09:13;;;;;;;0.50;0.50;;;;;;;23.34;65.90;99217.78;5048497;28;20238;-75
2023/04/25 11:11:40;;;;;;;0.60;0.60;;;;;;;23.37;63.02;99213.19;5048282;28;20290;-75
2023/04/25 11:14:07;;;;;;;0.57;0.57;;;;;;;23.50;73.97;99201.13;5048446;28;20684;-75
2023/04/25 11:16:36;;;;;;;0.57;0.57;;;;;;;23.27;70.83;99203.16;5048494;28;20207;-74
2023/04/25 11:19:03;;;;;;;0.70;0.70;;;;;;;23.03;72.29;99216.69;5048684;28;20203;-74
2023/04/25 11:21:31;;;;;;;0.60;0.60;;;;;;;23.15;73.96;99205.50;5061102;28;20554;-74
2023/04/25 11:23:58;;;;;;;0.60;0.60;;;;;;;23.18;78.54;99205.38;5090713;28;20209;-70
2023/04/25 11:26:25;;;;;;;0.70;0.70;;;;;;;23.50;77.56;99201.13;5090836;28;20202;-71
2023/04/25 11:28:52;;;;;;;0.60;0.60;;;;;;;23.04;70.59;99207.84;5090898;28;20201;-74